createdAt,value
2022-11-05T00:00:38.913Z,100.00
2022-11-05T00:03:25.626Z,100.00
2022-11-05T00:06:12.754Z,100.00
2022-11-05T00:09:00.477Z,100.00
2022-11-05T00:11:48.881Z,100.00
2022-11-05T00:14:35.173Z,100.00
2022-11-05T00:17:02.970Z,100.00
2022-11-05T00:19:30.650Z,100.00
2022-11-05T00:22:16.743Z,100.00
2022-11-05T00:25:06.083Z,100.00
2022-11-05T00:27:34.269Z,100.00
2022-11-05T00:30:07.631Z,100.00
2022-11-05T00:32:37.641Z,100.00
2022-11-05T00:35:07.319Z,100.00
2022-11-05T00:37:35.903Z,100.00
2022-11-05T00:40:07.791Z,100.00
2022-11-05T00:42:54.003Z,100.00
2022-11-05T00:45:21.712Z,100.00
2022-11-05T00:48:08.435Z,100.00
2022-11-05T00:50:36.336Z,100.00
2022-11-05T00:53:04.660Z,100.00
2022-11-05T00:55:38.049Z,100.00
2022-11-05T00:58:08.952Z,100.00
2022-11-05T01:00:39.358Z,100.00
2022-11-05T01:03:10.844Z,100.00
2022-11-05T01:05:42.516Z,100.00
2022-11-05T01:08:10.413Z,100.00
2022-11-05T01:10:42.481Z,100.00
2022-11-05T01:13:13.378Z,100.00
2022-11-05T01:15:42.338Z,100.00
2022-11-05T01:18:10.322Z,100.00
2022-11-05T01:20:38.457Z,100.00
2022-11-05T01:23:10.397Z,100.00
2022-11-05T01:25:43.310Z,100.00
2022-11-05T01:28:11.235Z,100.00
2022-11-05T01:30:39.182Z,100.00
2022-11-05T01:33:07.370Z,100.00
2022-11-05T01:35:35.169Z,100.00
2022-11-05T01:38:02.919Z,100.00
2022-11-05T01:40:30.805Z,100.00
2022-11-05T01:43:00.016Z,100.00
2022-11-05T01:45:28.653Z,100.00
2022-11-05T01:48:05.551Z,100.00
2022-11-05T01:50:47.200Z,100.00
2022-11-05T01:53:25.897Z,100.00
2022-11-05T01:56:01.228Z,100.00
2022-11-05T01:58:34.605Z,100.00
2022-11-05T02:01:02.529Z,100.00
2022-11-05T02:03:31.791Z,100.00
2022-11-05T02:06:02.652Z,100.00
2022-11-05T02:08:57.075Z,100.00
2022-11-05T02:11:25.155Z,100.00
2022-11-05T02:13:54.479Z,100.00
2022-11-05T02:16:37.681Z,100.00
2022-11-05T02:19:42.618Z,100.00
2022-11-05T02:22:58.654Z,100.00
2022-11-05T02:26:07.800Z,100.00
2022-11-05T02:29:26.605Z,100.00
2022-11-05T02:32:10.246Z,100.00
2022-11-05T02:34:55.528Z,100.00
2022-11-05T02:37:39.122Z,100.00
2022-11-05T02:40:17.784Z,100.00
2022-11-05T02:42:58.534Z,100.00
2022-11-05T02:45:41.651Z,100.00
2022-11-05T02:48:23.203Z,100.00
2022-11-05T02:51:03.045Z,100.00
2022-11-05T02:53:43.409Z,100.00
2022-11-05T02:56:20.761Z,100.00
2022-11-05T02:58:48.478Z,100.00
2022-11-05T03:01:16.573Z,100.00
2022-11-05T03:03:49.670Z,100.00
2022-11-05T03:06:56.129Z,100.00
2022-11-05T03:10:10.749Z,100.00
2022-11-05T03:12:53.419Z,100.00
2022-11-05T03:15:39.452Z,100.00
2022-11-05T03:18:14.924Z,100.00
2022-11-05T03:20:52.018Z,100.00
2022-11-05T03:23:29.176Z,100.00
2022-11-05T03:26:12.408Z,100.00
2022-11-05T03:28:46.187Z,100.00
2022-11-05T03:31:17.660Z,100.00
2022-11-05T03:33:48.104Z,100.00
2022-11-05T03:36:23.240Z,100.00
2022-11-05T03:38:57.030Z,100.00
2022-11-05T03:41:27.001Z,100.00
2022-11-05T03:43:58.987Z,100.00
2022-11-05T03:46:33.087Z,100.00
2022-11-05T03:49:05.749Z,100.00
2022-11-05T03:51:45.936Z,100.00
2022-11-05T03:54:14.696Z,100.00
2022-11-05T03:56:54.815Z,100.00
2022-11-05T03:59:23.933Z,100.00
2022-11-05T04:01:51.928Z,100.00
2022-11-05T04:04:19.939Z,100.00
2022-11-05T04:07:07.868Z,100.00
2022-11-05T04:09:54.360Z,100.00
2022-11-05T04:12:40.695Z,100.00
2022-11-05T04:15:08.948Z,100.00
2022-11-05T04:17:36.767Z,100.00
2022-11-05T04:20:24.320Z,100.00
2022-11-05T04:23:19.357Z,100.00
2022-11-05T04:25:47.515Z,100.00
2022-11-05T04:28:15.519Z,100.00
2022-11-05T04:30:44.453Z,100.00
2022-11-05T04:33:15.386Z,100.00
2022-11-05T04:35:46.233Z,100.00
2022-11-05T04:38:18.824Z,100.00
2022-11-05T04:40:48.197Z,100.00
2022-11-05T04:43:19.450Z,100.00
2022-11-05T04:45:47.446Z,100.00
2022-11-05T04:48:15.229Z,100.00
2022-11-05T04:50:43.015Z,100.00
2022-11-05T04:53:11.037Z,100.00
2022-11-05T04:55:40.457Z,100.00
2022-11-05T04:58:09.368Z,100.00
2022-11-05T05:00:37.245Z,100.00
2022-11-05T05:03:05.158Z,100.00
2022-11-05T05:05:33.049Z,100.00
2022-11-05T05:08:01.678Z,100.00
2022-11-05T05:10:29.483Z,100.00
2022-11-05T05:12:58.566Z,100.00
2022-11-05T05:15:26.299Z,100.00
2022-11-05T05:17:54.165Z,100.00
2022-11-05T05:20:40.875Z,100.00
2022-11-05T05:23:08.898Z,100.00
2022-11-05T05:25:36.941Z,100.00
2022-11-05T05:28:06.166Z,100.00
2022-11-05T05:30:34.312Z,100.00
2022-11-05T05:33:03.784Z,100.00
2022-11-05T05:35:31.626Z,100.00
2022-11-05T05:37:59.693Z,100.00
2022-11-05T05:40:27.524Z,100.00
2022-11-05T05:42:55.771Z,100.00
2022-11-05T05:45:24.828Z,100.00
2022-11-05T05:47:55.362Z,100.00
2022-11-05T05:50:23.139Z,100.00
2022-11-05T05:52:53.387Z,100.00
2022-11-05T05:55:21.251Z,100.00
2022-11-05T05:57:49.683Z,100.00
2022-11-05T06:00:18.442Z,100.00
2022-11-05T06:02:47.644Z,100.00
2022-11-05T06:05:15.817Z,100.00
2022-11-05T06:07:43.564Z,100.00
2022-11-05T06:10:11.503Z,100.00
2022-11-05T06:12:39.367Z,100.00
2022-11-05T06:15:08.210Z,100.00
2022-11-05T06:17:36.004Z,100.00
2022-11-05T06:20:08.399Z,100.00
2022-11-05T06:22:36.306Z,100.00
2022-11-05T06:25:05.678Z,100.00
2022-11-05T06:27:33.878Z,100.00
2022-11-05T06:30:01.829Z,100.00
2022-11-05T06:32:31.087Z,100.00
2022-11-05T06:34:58.978Z,100.00
2022-11-05T06:37:28.144Z,100.00
2022-11-05T06:39:57.100Z,100.00
2022-11-05T06:42:24.859Z,100.00
2022-11-05T06:44:52.945Z,100.00
2022-11-05T06:47:20.879Z,100.00
2022-11-05T06:49:48.739Z,100.00
2022-11-05T06:52:17.389Z,100.00
2022-11-05T06:54:46.499Z,100.00
2022-11-05T06:57:15.314Z,100.00
2022-11-05T06:59:43.103Z,100.00
2022-11-05T07:02:13.480Z,100.00
2022-11-05T07:04:41.457Z,100.00
2022-11-05T07:07:09.575Z,100.00
2022-11-05T07:09:42.965Z,100.00
2022-11-05T07:12:12.046Z,100.00
2022-11-05T07:14:39.883Z,100.00
2022-11-05T07:17:07.714Z,100.00
2022-11-05T07:19:35.515Z,100.00
2022-11-05T07:22:03.510Z,100.00
2022-11-05T07:24:31.179Z,100.00
2022-11-05T07:26:58.955Z,100.00
2022-11-05T07:29:28.011Z,100.00
2022-11-05T07:31:55.831Z,100.00
2022-11-05T07:34:23.528Z,100.00
2022-11-05T07:36:51.647Z,100.00
2022-11-05T07:39:19.678Z,100.00
2022-11-05T07:41:47.425Z,100.00
2022-11-05T07:44:17.506Z,100.00
2022-11-05T07:46:46.750Z,100.00
2022-11-05T07:49:14.496Z,100.00
2022-11-05T07:51:42.498Z,100.00
2022-11-05T07:54:10.681Z,100.00
2022-11-05T07:56:38.467Z,100.00
2022-11-05T07:59:06.691Z,100.00
2022-11-05T08:01:34.710Z,100.00
2022-11-05T08:04:04.544Z,100.00
2022-11-05T08:06:32.403Z,100.00
2022-11-05T08:09:00.274Z,100.00
2022-11-05T08:11:28.070Z,100.00
2022-11-05T08:13:55.898Z,100.00
2022-11-05T08:16:23.665Z,100.00
2022-11-05T08:18:51.660Z,100.00
2022-11-05T08:21:20.802Z,100.00
2022-11-05T08:23:48.538Z,100.00
2022-11-05T08:26:16.336Z,100.00
2022-11-05T08:28:44.206Z,100.00
2022-11-05T08:31:14.223Z,100.00
2022-11-05T08:33:42.213Z,100.00
2022-11-05T08:36:09.943Z,100.00
2022-11-05T08:38:38.945Z,100.00
2022-11-05T08:41:06.747Z,100.00
2022-11-05T08:43:34.522Z,100.00
2022-11-05T08:46:02.773Z,100.00
2022-11-05T08:48:30.559Z,100.00
2022-11-05T08:51:00.860Z,100.00
2022-11-05T08:53:28.653Z,100.00
2022-11-05T08:55:59.507Z,100.00
2022-11-05T08:58:28.264Z,100.00
2022-11-05T09:00:58.974Z,100.00
2022-11-05T09:03:29.642Z,100.00
2022-11-05T09:05:57.472Z,100.00
2022-11-05T09:08:25.374Z,100.00
2022-11-05T09:10:53.098Z,100.00
2022-11-05T09:13:22.910Z,100.00
2022-11-05T09:15:51.773Z,100.00
2022-11-05T09:18:20.873Z,100.00
2022-11-05T09:20:48.817Z,100.00
2022-11-05T09:23:17.074Z,100.00
2022-11-05T09:25:45.185Z,100.00
2022-11-05T09:28:17.345Z,100.00
2022-11-05T09:30:50.023Z,100.00
2022-11-05T09:33:19.929Z,100.00
2022-11-05T09:35:48.115Z,100.00
2022-11-05T09:38:16.269Z,98.63
2022-11-05T09:40:59.545Z,97.14
2022-11-05T09:43:35.127Z,95.55
2022-11-05T09:46:12.541Z,93.63
2022-11-05T09:48:42.431Z,88.49
2022-11-05T09:51:19.286Z,89.43
2022-11-05T09:53:51.022Z,88.58
2022-11-05T09:56:24.984Z,88.65
2022-11-05T09:58:59.982Z,90.62
2022-11-05T10:01:35.289Z,87.91
2022-11-05T10:04:13.059Z,84.00
2022-11-05T10:06:49.156Z,82.62
2022-11-05T10:09:25.210Z,81.55
2022-11-05T10:12:00.302Z,78.52
2022-11-05T10:14:33.762Z,76.41
2022-11-05T10:17:12.718Z,74.75
2022-11-05T10:19:47.778Z,71.87
2022-11-05T10:22:19.466Z,71.30
2022-11-05T10:24:52.072Z,69.63
2022-11-05T10:27:25.147Z,69.46
2022-11-05T10:29:53.335Z,69.27
2022-11-05T10:32:30.666Z,67.76
2022-11-05T10:35:02.557Z,67.77
2022-11-05T10:37:35.841Z,68.58
2022-11-05T10:40:20.076Z,67.00
2022-11-05T10:43:03.527Z,66.58
2022-11-05T10:45:55.307Z,63.75
2022-11-05T10:48:52.739Z,63.17
2022-11-05T10:51:20.682Z,62.25
2022-11-05T10:54:00.518Z,61.60
2022-11-05T10:56:35.451Z,60.86
2022-11-05T10:59:11.809Z,59.72
2022-11-05T11:01:40.416Z,59.70
2022-11-05T11:04:20.188Z,58.66
2022-11-05T11:06:51.598Z,58.89
2022-11-05T11:09:24.806Z,60.73
2022-11-05T11:12:18.837Z,60.36
2022-11-05T11:15:01.095Z,61.07
2022-11-05T11:17:32.281Z,63.16
2022-11-05T11:20:25.845Z,64.20
2022-11-05T11:23:05.166Z,64.63
2022-11-05T11:25:44.622Z,64.27
2022-11-05T11:28:21.821Z,63.02
2022-11-05T11:30:57.396Z,61.08
2022-11-05T11:33:28.453Z,61.07
2022-11-05T11:35:58.272Z,61.48
2022-11-05T11:38:31.203Z,62.52
2022-11-05T11:41:22.768Z,63.86
2022-11-05T11:43:59.479Z,62.96
2022-11-05T11:46:34.088Z,64.66
2022-11-05T11:49:02.528Z,66.53
2022-11-05T11:51:36.674Z,67.54
2022-11-05T11:54:05.343Z,68.14
2022-11-05T11:56:45.181Z,68.21
2022-11-05T11:59:40.435Z,67.92
2022-11-05T12:02:46.193Z,68.68
2022-11-05T12:05:34.713Z,67.73
2022-11-05T12:08:23.872Z,69.27
2022-11-05T12:11:04.176Z,68.35
2022-11-05T12:13:56.852Z,68.59
2022-11-05T12:16:50.501Z,66.44
2022-11-05T12:19:40.379Z,65.81
2022-11-05T12:22:22.052Z,65.19
2022-11-05T12:25:17.557Z,64.10
2022-11-05T12:28:14.183Z,64.20
2022-11-05T12:30:55.823Z,64.58
2022-11-05T12:33:38.376Z,65.01
2022-11-05T12:36:25.953Z,62.35
2022-11-05T12:39:19.230Z,63.41
2022-11-05T12:41:58.720Z,64.20
2022-11-05T12:45:00.317Z,62.63
2022-11-05T12:47:53.320Z,63.27
2022-11-05T12:50:33.915Z,64.01
2022-11-05T12:53:40.765Z,64.21
2022-11-05T12:56:17.024Z,65.90
2022-11-05T12:58:53.827Z,65.46
2022-11-05T13:01:31.860Z,66.25
2022-11-05T13:04:08.680Z,65.44
2022-11-05T13:06:41.778Z,65.50
2022-11-05T13:09:17.818Z,66.36
2022-11-05T13:11:53.453Z,65.01
2022-11-05T13:14:29.112Z,65.83
2022-11-05T13:17:02.263Z,65.76
2022-11-05T13:19:37.364Z,65.67
2022-11-05T13:22:29.107Z,66.51
2022-11-05T13:25:05.031Z,65.85
2022-11-05T13:27:51.990Z,66.50
2022-11-05T13:30:25.043Z,67.01
2022-11-05T13:33:01.827Z,65.31
2022-11-05T13:35:36.109Z,65.28
2022-11-05T13:38:27.620Z,65.33
2022-11-05T13:41:18.290Z,64.08
2022-11-05T13:44:24.074Z,61.16
2022-11-05T13:47:19.475Z,62.63
2022-11-05T13:50:13.396Z,61.01
2022-11-05T13:53:06.080Z,61.38
2022-11-05T13:55:56.541Z,61.88
2022-11-05T13:59:00.520Z,61.15
2022-11-05T14:01:44.873Z,61.22
2022-11-05T14:04:30.126Z,60.35
2022-11-05T14:07:09.180Z,57.69
2022-11-05T14:09:39.579Z,56.63
2022-11-05T14:12:23.426Z,55.84
2022-11-05T14:15:00.153Z,55.36
2022-11-05T14:17:33.959Z,54.90
2022-11-05T14:20:42.287Z,55.79
2022-11-05T14:23:50.398Z,56.63
2022-11-05T14:26:23.192Z,56.79
2022-11-05T14:29:23.000Z,59.84
2022-11-05T14:32:13.071Z,59.51
2022-11-05T14:34:53.355Z,60.30
2022-11-05T14:37:30.116Z,61.30
2022-11-05T14:40:29.511Z,61.79
2022-11-05T14:43:02.662Z,61.68
2022-11-05T14:45:35.082Z,60.04
2022-11-05T14:48:23.331Z,60.97
2022-11-05T14:50:51.741Z,62.50
2022-11-05T14:53:34.666Z,62.56
2022-11-05T14:56:08.483Z,64.50
2022-11-05T14:58:38.846Z,64.98
2022-11-05T15:01:09.626Z,64.20
2022-11-05T15:04:16.245Z,64.72
2022-11-05T15:07:32.010Z,64.73
2022-11-05T15:10:10.489Z,64.78
2022-11-05T15:12:45.595Z,65.07
2022-11-05T15:15:22.708Z,66.41
2022-11-05T15:18:02.765Z,67.22
2022-11-05T15:20:40.343Z,67.04
2022-11-05T15:23:15.525Z,67.75
2022-11-05T15:25:53.439Z,67.17
2022-11-05T15:28:34.020Z,68.25
2022-11-05T15:31:05.022Z,68.31
2022-11-05T15:33:33.372Z,68.92
2022-11-05T15:36:27.760Z,69.73
2022-11-05T15:39:27.346Z,69.81
2022-11-05T15:41:47.149Z,70.13
2022-11-05T15:44:29.401Z,70.51
2022-11-05T15:47:13.608Z,71.70
2022-11-05T15:49:44.335Z,71.44
2022-11-05T15:52:15.241Z,70.67
2022-11-05T15:54:44.155Z,71.66
2022-11-05T15:57:29.153Z,71.30
2022-11-05T15:59:57.208Z,71.04
2022-11-05T16:02:33.429Z,71.82
2022-11-05T16:05:09.606Z,71.62
2022-11-05T16:07:42.684Z,71.39
2022-11-05T16:10:20.612Z,71.29
2022-11-05T16:12:50.163Z,71.56
2022-11-05T16:15:23.144Z,71.10
2022-11-05T16:17:55.208Z,71.46
2022-11-05T16:20:29.573Z,71.95
2022-11-05T16:23:01.256Z,72.45
2022-11-05T16:25:37.960Z,72.83
2022-11-05T16:28:22.285Z,73.85
2022-11-05T16:30:56.680Z,74.46
2022-11-05T16:33:27.653Z,75.34
2022-11-05T16:35:55.538Z,75.79
2022-11-05T16:38:24.274Z,75.77
2022-11-05T16:40:52.273Z,75.47
2022-11-05T16:43:24.627Z,75.04
2022-11-05T16:45:55.341Z,74.93
2022-11-05T16:48:23.358Z,74.25
2022-11-05T16:50:51.914Z,73.69
2022-11-05T16:53:19.955Z,74.04
2022-11-05T16:55:48.003Z,73.95
2022-11-05T16:58:22.518Z,74.47
2022-11-05T17:00:54.599Z,75.32
2022-11-05T17:03:22.411Z,75.08
2022-11-05T17:05:50.111Z,75.21
2022-11-05T17:08:18.056Z,75.07
2022-11-05T17:10:46.014Z,75.61
2022-11-05T17:13:16.811Z,76.19
2022-11-05T17:15:49.553Z,76.12
2022-11-05T17:18:19.073Z,76.64
2022-11-05T17:20:50.765Z,76.51
2022-11-05T17:23:21.411Z,76.17
2022-11-05T17:25:53.590Z,76.88
2022-11-05T17:28:21.958Z,77.40
2022-11-05T17:30:54.128Z,78.01
2022-11-05T17:33:23.389Z,77.93
2022-11-05T17:35:52.588Z,78.48
2022-11-05T17:38:22.417Z,78.85
2022-11-05T17:40:50.770Z,78.87
2022-11-05T17:43:20.133Z,78.54
2022-11-05T17:45:58.620Z,78.76
2022-11-05T17:48:29.452Z,78.04
2022-11-05T17:50:57.251Z,78.14
2022-11-05T17:53:25.357Z,78.63
2022-11-05T17:55:53.282Z,78.92
2022-11-05T17:58:21.118Z,78.55
2022-11-05T18:00:49.201Z,78.89
2022-11-05T18:03:18.294Z,79.30
2022-11-05T18:05:46.262Z,78.66
2022-11-05T18:08:14.101Z,79.46
2022-11-05T18:10:42.742Z,79.26
2022-11-05T18:13:11.636Z,79.04
2022-11-05T18:15:41.031Z,79.42
2022-11-05T18:18:09.628Z,80.04
2022-11-05T18:20:39.172Z,79.87
2022-11-05T18:23:07.047Z,79.98
2022-11-05T18:25:34.927Z,79.96
2022-11-05T18:28:03.460Z,80.06
2022-11-05T18:30:31.326Z,80.14
2022-11-05T18:32:59.203Z,80.19
2022-11-05T18:35:27.013Z,79.69
2022-11-05T18:37:56.341Z,79.50
2022-11-05T18:40:24.236Z,79.32
2022-11-05T18:42:52.243Z,78.52
2022-11-05T18:45:21.036Z,79.66
2022-11-05T18:47:51.132Z,79.06
2022-11-05T18:50:19.100Z,78.50
2022-11-05T18:52:46.864Z,79.04
2022-11-05T18:55:16.026Z,78.46
2022-11-05T18:57:43.871Z,77.82
2022-11-05T19:00:14.464Z,79.05
2022-11-05T19:02:42.356Z,78.89
2022-11-05T19:07:58.843Z,78.81
2022-11-05T19:10:28.346Z,78.08
2022-11-05T19:12:56.415Z,77.85
2022-11-05T19:15:24.174Z,77.85
2022-11-05T19:17:51.932Z,77.62
2022-11-05T19:20:19.777Z,77.51
2022-11-05T19:22:47.651Z,77.76
2022-11-05T19:25:15.495Z,77.36
2022-11-05T19:27:45.275Z,76.98
2022-11-05T19:30:13.240Z,77.00
2022-11-05T19:32:41.086Z,77.85
2022-11-05T19:35:09.436Z,77.66
2022-11-05T19:37:37.297Z,78.22
2022-11-05T19:40:06.987Z,77.67
2022-11-05T19:42:34.838Z,77.23
2022-11-05T19:45:30.321Z,77.83
2022-11-05T19:47:52.860Z,77.55
2022-11-05T19:50:20.604Z,78.17
2022-11-05T19:52:48.588Z,78.76
2022-11-05T19:55:16.248Z,78.42
2022-11-05T19:57:44.829Z,78.90
2022-11-05T20:00:15.300Z,79.09
2022-11-05T20:02:45.152Z,79.41
2022-11-05T20:05:13.645Z,79.75
2022-11-05T20:07:41.425Z,79.57
2022-11-05T20:10:10.772Z,79.13
2022-11-05T20:12:39.062Z,79.34
2022-11-05T20:15:08.228Z,79.29
2022-11-05T20:17:39.324Z,79.10
2022-11-05T20:20:08.809Z,79.48
2022-11-05T20:22:36.671Z,78.90
2022-11-05T20:25:06.075Z,78.81
2022-11-05T20:27:33.940Z,78.56
2022-11-05T20:30:01.903Z,78.75
2022-11-05T20:32:29.778Z,79.12
2022-11-05T20:34:58.835Z,79.42
2022-11-05T20:37:26.562Z,79.64
2022-11-05T20:39:54.395Z,80.14
2022-11-05T20:42:22.359Z,79.98
2022-11-05T20:44:50.255Z,80.04
2022-11-05T20:47:18.025Z,80.07
2022-11-05T20:49:45.844Z,80.24
2022-11-05T20:52:17.049Z,80.52
2022-11-05T20:54:44.819Z,80.47
2022-11-05T20:57:12.720Z,80.52
2022-11-05T20:59:40.468Z,81.16
2022-11-05T21:02:09.738Z,80.24
2022-11-05T21:04:39.019Z,80.51
2022-11-05T21:07:06.934Z,80.52
2022-11-05T21:09:36.073Z,81.07
2022-11-05T21:12:10.035Z,81.26
2022-11-05T21:14:38.582Z,81.67
2022-11-05T21:17:08.810Z,81.70
2022-11-05T21:19:36.979Z,82.06
2022-11-05T21:22:06.277Z,81.83
2022-11-05T21:24:35.950Z,82.03
2022-11-05T21:27:04.020Z,82.24
2022-11-05T21:29:31.878Z,82.00
2022-11-05T21:31:59.605Z,82.36
2022-11-05T21:34:28.116Z,81.86
2022-11-05T21:36:55.915Z,82.14
2022-11-05T21:39:23.757Z,81.88
2022-11-05T21:41:53.032Z,82.22
2022-11-05T21:44:21.205Z,81.71
2022-11-05T21:46:48.951Z,81.48
2022-11-05T21:49:16.835Z,81.42
2022-11-05T21:52:03.452Z,81.48
2022-11-05T21:54:49.850Z,81.80
2022-11-05T21:57:38.045Z,82.36
2022-11-05T22:00:11.055Z,81.57
2022-11-05T22:02:38.920Z,81.31
2022-11-05T22:05:08.158Z,81.79
2022-11-05T22:07:38.871Z,81.45
2022-11-05T22:10:15.594Z,80.49
2022-11-05T22:12:46.117Z,81.16
2022-11-05T22:15:14.431Z,80.66
2022-11-05T22:17:46.588Z,81.35
2022-11-05T22:20:16.069Z,81.50
2022-11-05T22:22:44.691Z,81.31
2022-11-05T22:25:13.395Z,80.47
2022-11-05T22:27:41.257Z,80.92
2022-11-05T22:30:13.265Z,80.76
2022-11-05T22:32:41.272Z,81.07
2022-11-05T22:35:09.828Z,80.72
2022-11-05T22:37:37.761Z,81.04
2022-11-05T22:40:07.010Z,81.02
2022-11-05T22:42:34.801Z,80.75
2022-11-05T22:45:02.718Z,80.24
2022-11-05T22:47:31.959Z,78.77
2022-11-05T22:49:59.759Z,79.25
2022-11-05T22:52:27.554Z,79.02
2022-11-05T22:54:55.272Z,79.25
2022-11-05T22:57:23.075Z,79.44
2022-11-05T22:59:50.910Z,79.33
2022-11-05T23:02:18.767Z,79.38
2022-11-05T23:04:49.451Z,79.99
2022-11-05T23:07:36.625Z,79.65
2022-11-05T23:10:23.522Z,79.49
2022-11-05T23:12:53.064Z,79.44
2022-11-05T23:15:39.391Z,79.62
2022-11-05T23:18:28.226Z,78.84
2022-11-05T23:21:20.462Z,79.31
2022-11-05T23:24:05.899Z,79.29
2022-11-05T23:26:51.058Z,79.65
2022-11-05T23:29:21.464Z,78.89
2022-11-05T23:32:08.098Z,79.76
2022-11-05T23:34:36.465Z,78.52
2022-11-05T23:37:24.607Z,78.48
2022-11-05T23:39:52.669Z,78.80
2022-11-05T23:42:39.932Z,78.83
2022-11-05T23:45:27.961Z,78.03
2022-11-05T23:48:15.456Z,77.56
2022-11-05T23:50:49.254Z,77.30
2022-11-05T23:53:19.233Z,77.32
2022-11-05T23:55:47.626Z,78.07
2022-11-05T23:58:16.912Z,77.42
